Time;durP1;ratioP1;P1;durP2;ratioP2;P2;SDS_P1;SDS_P2;PMS_P1;PMS_P2;Temp;Humidity;BMP_temperature;BMP_pressure;BME280_temperature;BME280_humidity;BME280_pressure;Samples;Min_cycle;Max_cycle;Signal;HPM_P1;HPM_P2
2022/02/21 00:01:58;;;;;;;4.38;1.30;;;8.10;86.30;;;;;;9181917;19;20019;-64
2022/02/21 00:05:04;;;;;;;7.68;1.30;;;8.10;86.40;;;;;;9181365;19;20015;-65
2022/02/21 00:08:11;;;;;;;6.13;1.38;;;8.10;86.30;;;;;;9180442;19;20019;-65
2022/02/21 00:11:16;;;;;;;9.23;1.30;;;8.00;86.30;;;;;;9180141;19;20010;-63
2022/02/21 00:14:21;;;;;;;5.70;1.48;;;8.00;86.20;;;;;;9181230;19;20040;-64
2022/02/21 00:17:26;;;;;;;9.20;1.25;;;8.00;86.30;;;;;;9182223;19;20476;-65
2022/02/21 00:20:31;;;;;;;9.32;1.45;;;8.00;86.30;;;;;;9178763;19;20016;-67
2022/02/21 00:23:39;;;;;;;6.30;1.00;;;8.00;86.30;;;;;;9179489;19;20022;-64
2022/02/21 00:26:44;;;;;;;6.53;1.83;;;7.90;86.00;;;;;;9175152;19;20029;-64
2022/02/21 00:29:49;;;;;;;7.57;1.90;;;7.80;85.80;;;;;;9179777;19;20014;-65
2022/02/21 00:32:54;;;;;;;12.63;1.67;;;7.70;85.60;;;;;;9180966;19;20022;-63
2022/02/21 00:35:59;;;;;;;14.40;2.47;;;7.60;85.60;;;;;;9180046;19;20007;-65
2022/02/21 00:39:07;;;;;;;16.80;2.67;;;7.60;85.60;;;;;;9177817;19;20019;-64
2022/02/21 00:42:12;;;;;;;13.00;2.90;;;7.50;85.70;;;;;;9178780;19;20010;-64
2022/02/21 00:45:18;;;;;;;17.23;2.60;;;7.50;85.90;;;;;;9180827;19;20348;-64
2022/02/21 00:48:23;;;;;;;15.88;2.67;;;7.40;85.90;;;;;;9180787;19;20022;-64
2022/02/21 00:51:28;;;;;;;17.70;2.15;;;7.40;85.90;;;;;;9181112;19;20015;-66
2022/02/21 00:54:35;;;;;;;15.70;2.28;;;7.40;85.90;;;;;;9176929;19;20014;-65
2022/02/21 00:57:41;;;;;;;12.15;2.03;;;7.40;85.90;;;;;;9177950;19;20022;-65
2022/02/21 01:00:46;;;;;;;16.60;3.05;;;7.30;85.80;;;;;;9181326;19;20025;-64
2022/02/21 01:03:51;;;;;;;21.23;2.65;;;7.30;85.80;;;;;;9181190;19;20018;-63
2022/02/21 01:06:56;;;;;;;14.00;2.35;;;7.30;85.80;;;;;;9181354;19;20019;-65
2022/02/21 01:10:04;;;;;;;12.10;2.25;;;7.20;85.80;;;;;;9177705;19;20024;-64
2022/02/21 01:13:09;;;;;;;13.85;2.67;;;7.20;85.80;;;;;;9176377;19;20026;-65
2022/02/21 01:16:14;;;;;;;10.88;2.03;;;7.20;85.80;;;;;;9178908;19;20065;-65
2022/02/21 01:19:19;;;;;;;13.43;2.20;;;7.20;85.70;;;;;;9181042;19;20034;-62
2022/02/21 01:22:24;;;;;;;15.02;1.85;;;7.10;85.60;;;;;;9176600;19;20041;-65
2022/02/21 01:25:31;;;;;;;11.00;2.20;;;7.10;85.50;;;;;;9177063;19;20491;-65
2022/02/21 01:28:36;;;;;;;18.92;2.72;;;7.10;85.50;;;;;;9174063;19;20070;-66
2022/02/21 01:31:42;;;;;;;18.27;2.85;;;7.00;85.40;;;;;;9176856;19;20022;-64
2022/02/21 01:34:47;;;;;;;22.83;3.45;;;7.00;85.50;;;;;;9179479;19;20014;-64
2022/02/21 01:37:52;;;;;;;23.55;3.20;;;6.90;85.40;;;;;;9175432;19;20018;-63
2022/02/21 01:41:00;;;;;;;20.05;3.60;;;6.90;85.40;;;;;;9175770;19;20034;-64
2022/02/21 01:44:07;;;;;;;15.48;2.65;;;6.90;85.40;;;;;;9177394;19;20026;-64
2022/02/21 01:47:20;;;;;;;22.40;2.63;;;6.90;85.50;;;;;;9177882;19;20407;-64
2022/02/21 01:50:25;;;;;;;17.00;2.92;;;6.90;85.40;;;;;;9178084;19;20794;-63
2022/02/21 01:53:30;;;;;;;24.70;3.13;;;6.80;85.40;;;;;;9174692;19;20018;-64
2022/02/21 01:56:39;;;;;;;18.35;2.80;;;6.80;85.40;;;;;;9176281;19;20015;-64
2022/02/21 01:59:44;;;;;;;19.58;3.15;;;6.80;85.40;;;;;;9175886;19;20025;-63
2022/02/21 02:02:49;;;;;;;20.42;2.55;;;6.80;85.30;;;;;;9174762;19;20384;-65
2022/02/21 02:05:54;;;;;;;22.35;3.03;;;6.80;85.30;;;;;;9176917;19;20014;-64
2022/02/21 02:09:00;;;;;;;29.27;3.65;;;6.80;85.20;;;;;;9173747;19;20348;-64
2022/02/21 02:12:10;;;;;;;26.55;3.05;;;6.80;84.90;;;;;;9175905;19;20361;-64
2022/02/21 02:15:18;;;;;;;24.48;3.72;;;6.70;84.70;;;;;;9176029;19;20018;-63
2022/02/21 02:18:24;;;;;;;13.70;2.40;;;6.70;84.70;;;;;;9178735;19;20496;-64
2022/02/21 02:21:30;;;;;;;22.85;3.83;;;6.70;84.60;;;;;;9174903;19;20018;-64
2022/02/21 02:24:39;;;;;;;28.00;3.55;;;6.70;84.50;;;;;;9176816;19;20018;-64
2022/02/21 02:27:44;;;;;;;32.78;3.95;;;6.60;84.40;;;;;;9170485;19;20018;-66
2022/02/21 02:30:49;;;;;;;26.02;3.72;;;6.60;84.40;;;;;;9176431;19;20041;-64
2022/02/21 02:33:54;;;;;;;15.25;2.70;;;6.60;84.40;;;;;;9175930;19;20018;-64
2022/02/21 02:36:59;;;;;;;19.67;2.95;;;6.60;84.40;;;;;;9174048;19;20019;-64
2022/02/21 02:40:08;;;;;;;10.93;2.60;;;6.50;84.30;;;;;;9174301;19;20369;-63
2022/02/21 02:43:14;;;;;;;27.13;3.20;;;6.50;84.20;;;;;;9177401;19;20025;-63
2022/02/21 02:46:19;;;;;;;14.75;2.72;;;6.50;84.20;;;;;;9176284;19;20015;-64
2022/02/21 02:49:24;;;;;;;18.42;3.42;;;6.50;84.20;;;;;;9173940;19;20014;-65
2022/02/21 02:52:29;;;;;;;13.15;2.67;;;6.40;84.10;;;;;;9172449;19;20456;-64
2022/02/21 02:55:36;;;;;;;17.63;2.55;;;6.40;84.10;;;;;;9186490;19;20021;-65
2022/02/21 02:58:41;;;;;;;14.20;2.38;;;6.40;84.10;;;;;;9185870;19;20459;-64
2022/02/21 03:01:46;;;;;;;9.32;2.30;;;6.40;84.10;;;;;;9179855;19;20017;-63
2022/02/21 03:04:52;;;;;;;10.88;1.70;;;6.30;83.90;;;;;;9182272;19;20034;-63
2022/02/21 03:07:57;;;;;;;21.95;3.00;;;6.30;84.00;;;;;;9183550;19;20010;-64
2022/02/21 03:11:04;;;;;;;10.25;2.30;;;6.30;83.90;;;;;;9182957;19;20018;-64
2022/02/21 03:14:10;;;;;;;13.45;2.33;;;6.30;83.90;;;;;;9184756;19;20036;-62
2022/02/21 03:17:15;;;;;;;17.33;2.53;;;6.30;83.90;;;;;;9182045;19;20052;-65
2022/02/21 03:20:20;;;;;;;12.50;2.70;;;6.20;83.80;;;;;;9182884;19;20011;-64
2022/02/21 03:23:25;;;;;;;18.02;2.28;;;6.20;83.70;;;;;;9182060;19;20022;-63
2022/02/21 03:26:33;;;;;;;13.63;2.63;;;6.20;83.70;;;;;;9180076;19;20021;-64
2022/02/21 03:29:38;;;;;;;18.83;2.38;;;6.10;83.60;;;;;;9186254;19;20019;-65
2022/02/21 03:32:44;;;;;;;13.80;2.47;;;6.10;83.60;;;;;;9179902;19;20026;-65
2022/02/21 03:35:50;;;;;;;19.63;2.88;;;6.10;83.70;;;;;;9181499;19;20022;-64
2022/02/21 03:38:55;;;;;;;11.85;2.13;;;6.10;83.60;;;;;;9182596;19;20469;-64
2022/02/21 03:42:02;;;;;;;11.95;2.22;;;6.10;83.60;;;;;;9182312;19;20645;-65
2022/02/21 03:45:09;;;;;;;12.20;2.30;;;6.00;83.50;;;;;;9182580;19;20032;-64
2022/02/21 03:48:15;;;;;;;11.40;2.92;;;6.00;83.50;;;;;;9180431;19;20015;-65
2022/02/21 03:51:20;;;;;;;16.50;2.33;;;6.00;83.50;;;;;;9181866;19;20019;-64
2022/02/21 03:54:25;;;;;;;12.13;1.83;;;6.00;83.50;;;;;;9181354;19;20378;-62
2022/02/21 03:57:32;;;;;;;14.90;2.08;;;6.00;83.50;;;;;;9183995;19;20662;-64
2022/02/21 04:00:37;;;;;;;8.55;2.28;;;5.90;83.50;;;;;;9183411;19;20030;-66
2022/02/21 04:03:42;;;;;;;11.57;2.47;;;5.90;83.50;;;;;;9179850;19;20019;-67
2022/02/21 04:06:47;;;;;;;13.70;2.35;;;5.90;83.50;;;;;;9182106;19;20010;-67
2022/02/21 04:09:52;;;;;;;12.90;1.77;;;5.90;83.50;;;;;;9181712;19;20407;-63
2022/02/21 04:13:00;;;;;;;13.73;2.60;;;5.90;83.50;;;;;;9181658;19;20577;-70
2022/02/21 04:16:05;;;;;;;23.08;3.10;;;5.80;83.40;;;;;;9177682;19;20022;-64
2022/02/21 04:19:10;;;;;;;15.43;1.90;;;5.80;83.50;;;;;;9179523;19;20018;-63
2022/02/21 04:22:16;;;;;;;15.70;2.47;;;5.80;83.50;;;;;;9180177;19;20018;-64
2022/02/21 04:25:21;;;;;;;13.70;2.10;;;5.80;83.60;;;;;;9182411;19;20337;-62
2022/02/21 04:28:28;;;;;;;12.75;2.40;;;5.80;83.60;;;;;;9178362;19;20459;-64
2022/02/21 04:31:33;;;;;;;21.30;2.47;;;5.80;83.60;;;;;;9178388;19;20025;-64
2022/02/21 04:34:39;;;;;;;20.02;2.40;;;5.80;83.60;;;;;;9177158;19;20042;-64
2022/02/21 04:37:44;;;;;;;9.88;2.30;;;5.80;83.50;;;;;;9179904;19;20710;-66
2022/02/21 04:40:51;;;;;;;16.48;1.85;;;5.80;83.40;;;;;;9182396;19;20113;-63
2022/02/21 04:43:58;;;;;;;16.95;2.30;;;5.70;83.40;;;;;;9182785;19;20492;-64
2022/02/21 04:47:04;;;;;;;13.85;2.60;;;5.70;83.30;;;;;;9176973;19;20022;-65
2022/02/21 04:50:11;;;;;;;19.25;2.63;;;5.70;83.30;;;;;;9179063;19;20022;-64
2022/02/21 04:53:16;;;;;;;12.32;2.00;;;5.70;83.30;;;;;;9178190;19;20049;-65
2022/02/21 04:56:21;;;;;;;12.90;2.55;;;5.60;83.20;;;;;;9180865;19;20014;-64
2022/02/21 04:59:29;;;;;;;7.57;2.40;;;5.70;83.20;;;;;;9181373;19;20406;-62
2022/02/21 05:02:34;;;;;;;19.95;2.20;;;5.60;83.10;;;;;;9176593;19;20029;-64
2022/02/21 05:05:39;;;;;;;18.17;2.55;;;5.60;83.20;;;;;;9178621;19;20334;-62
2022/02/21 05:08:44;;;;;;;16.08;2.78;;;5.60;83.10;;;;;;9179916;19;20015;-64
2022/02/21 05:11:49;;;;;;;14.80;2.17;;;5.60;83.00;;;;;;9178626;19;20029;-64
2022/02/21 05:14:57;;;;;;;16.23;2.45;;;5.60;83.00;;;;;;9177443;19;20022;-63
2022/02/21 05:18:02;;;;;;;7.88;1.83;;;5.60;83.00;;;;;;9177149;19;20641;-63
2022/02/21 05:21:07;;;;;;;24.08;2.30;;;5.60;83.00;;;;;;9178106;19;20018;-65
2022/02/21 05:24:12;;;;;;;10.75;2.33;;;5.60;83.00;;;;;;9178251;19;20022;-63
2022/02/21 05:27:17;;;;;;;8.65;2.08;;;5.60;83.00;;;;;;9174769;19;20018;-64
2022/02/21 05:30:24;;;;;;;10.82;2.30;;;5.60;83.00;;;;;;9179334;19;20022;-63
2022/02/21 05:33:30;;;;;;;10.07;1.88;;;5.60;82.90;;;;;;9175657;19;20646;-64
2022/02/21 05:36:35;;;;;;;13.95;2.22;;;5.60;82.90;;;;;;9177230;19;20014;-63
2022/02/21 05:39:40;;;;;;;13.68;2.03;;;5.50;82.90;;;;;;9178904;19;20459;-65
2022/02/21 05:42:45;;;;;;;13.07;2.38;;;5.50;82.90;;;;;;9179359;19;20029;-63
2022/02/21 05:45:53;;;;;;;19.85;4.18;;;5.50;82.90;;;;;;9177766;19;20037;-63
2022/02/21 05:48:58;;;;;;;16.85;2.90;;;5.60;82.90;;;;;;9177389;19;20460;-62
2022/02/21 05:52:04;;;;;;;14.48;2.80;;;5.60;82.90;;;;;;9176798;19;20041;-64
2022/02/21 05:55:09;;;;;;;19.75;2.67;;;5.50;82.80;;;;;;9176582;19;20023;-65
2022/02/21 05:58:14;;;;;;;15.02;2.33;;;5.50;82.80;;;;;;9179658;19;20013;-64
2022/02/21 06:01:22;;;;;;;18.80;3.15;;;5.60;82.80;;;;;;9176935;19;20011;-63
2022/02/21 06:04:27;;;;;;;18.52;2.90;;;5.60;82.80;;;;;;9175361;19;20494;-63
2022/02/21 06:07:32;;;;;;;19.13;3.08;;;5.60;82.80;;;;;;9177906;19;20015;-63
2022/02/21 06:10:37;;;;;;;14.38;2.72;;;5.60;82.80;;;;;;9174287;19;20460;-64
2022/02/21 06:13:42;;;;;;;19.95;2.65;;;5.60;82.70;;;;;;9177868;19;20370;-63
2022/02/21 06:16:50;;;;;;;13.25;2.78;;;5.60;82.70;;;;;;9173680;19;20484;-64
2022/02/21 06:19:55;;;;;;;20.05;2.83;;;5.60;82.60;;;;;;9174589;19;20021;-64
2022/02/21 06:23:00;;;;;;;13.02;2.42;;;5.70;82.70;;;;;;9176089;19;20015;-62
2022/02/21 06:26:05;;;;;;;21.58;2.88;;;5.70;82.70;;;;;;9172849;19;20026;-64
2022/02/21 06:29:10;;;;;;;13.98;2.63;;;5.70;82.60;;;;;;9179052;19;20015;-64
2022/02/21 06:32:17;;;;;;;23.92;2.97;;;5.70;82.60;;;;;;9183627;19;20018;-63
2022/02/21 06:35:22;;;;;;;18.05;3.25;;;5.70;82.60;;;;;;9180562;19;20357;-62
2022/02/21 06:38:27;;;;;;;27.20;2.97;;;5.70;82.60;;;;;;9183636;19;20022;-62
2022/02/21 06:41:32;;;;;;;16.08;2.60;;;5.70;82.50;;;;;;9186918;19;20034;-62
2022/02/21 06:44:37;;;;;;;18.10;3.47;;;5.80;82.50;;;;;;9185122;19;20038;-64
2022/02/21 06:47:45;;;;;;;16.17;3.00;;;5.80;82.40;;;;;;9182328;19;20022;-61
2022/02/21 06:50:50;;;;;;;17.27;3.25;;;5.80;82.40;;;;;;9182467;19;20051;-64
2022/02/21 06:53:55;;;;;;;29.05;3.47;;;5.80;82.40;;;;;;9182965;19;20019;-62
2022/02/21 06:57:00;;;;;;;18.23;2.40;;;5.80;82.30;;;;;;9185429;19;20014;-63
2022/02/21 07:00:06;;;;;;;13.15;2.85;;;5.80;82.30;;;;;;9183734;19;20483;-66
2022/02/21 07:03:14;;;;;;;17.67;2.55;;;5.80;82.30;;;;;;9180964;19;20019;-64
2022/02/21 07:06:19;;;;;;;20.60;2.83;;;5.90;82.30;;;;;;9181775;19;20090;-63
2022/02/21 07:09:24;;;;;;;15.20;2.40;;;5.90;82.30;;;;;;9184033;19;20760;-63
2022/02/21 07:12:30;;;;;;;19.67;3.33;;;5.90;82.20;;;;;;9177661;19;20044;-64
2022/02/21 07:15:35;;;;;;;26.15;3.55;;;5.90;82.20;;;;;;9177640;19;20872;-63
2022/02/21 07:18:42;;;;;;;19.95;3.33;;;5.90;82.10;;;;;;9174380;19;20702;-63
2022/02/21 07:21:47;;;;;;;17.52;3.22;;;6.00;82.10;;;;;;9170062;19;20022;-64
2022/02/21 07:24:52;;;;;;;20.77;2.53;;;5.90;82.10;;;;;;9169762;19;20487;-65
2022/02/21 07:27:57;;;;;;;17.33;2.80;;;6.00;82.10;;;;;;9170237;19;20472;-66
2022/02/21 07:31:02;;;;;;;13.93;2.70;;;6.00;82.60;;;;;;9173063;19;20038;-64
2022/02/21 07:34:10;;;;;;;23.15;2.75;;;6.00;82.00;;;;;;9167570;19;20026;-64
2022/02/21 07:37:15;;;;;;;20.70;2.97;;;6.00;81.90;;;;;;9177291;19;20022;-64
2022/02/21 07:40:20;;;;;;;15.48;3.00;;;6.00;81.90;;;;;;9177136;19;20022;-65
2022/02/21 07:43:25;;;;;;;19.92;2.80;;;6.00;81.90;;;;;;9180311;19;20030;-66
2022/02/21 07:46:30;;;;;;;15.32;2.33;;;6.00;81.90;;;;;;9184255;19;20019;-64
2022/02/21 07:49:43;;;;;;;15.93;2.60;;;6.10;81.90;;;;;;9180217;19;20022;-65
2022/02/21 07:52:48;;;;;;;10.50;2.53;;;6.10;81.80;;;;;;9177521;19;20048;-64
2022/02/21 07:55:53;;;;;;;14.27;2.65;;;6.20;81.80;;;;;;9181419;19;20038;-63
2022/02/21 07:58:58;;;;;;;17.70;2.67;;;6.10;81.70;;;;;;9182824;19;20116;-63
2022/02/21 08:02:03;;;;;;;18.33;2.85;;;6.10;81.70;;;;;;9184009;19;20093;-63
2022/02/21 08:05:12;;;;;;;16.30;3.38;;;6.10;81.60;;;;;;9178402;19;20018;-64
2022/02/21 08:08:17;;;;;;;20.23;3.42;;;6.20;81.60;;;;;;9178735;19;20018;-62
2022/02/21 08:11:24;;;;;;;22.67;3.20;;;6.20;81.60;;;;;;9179527;19;20057;-63
2022/02/21 08:14:29;;;;;;;15.55;2.85;;;6.20;81.60;;;;;;9181745;19;20010;-62
2022/02/21 08:17:40;;;;;;;20.33;3.60;;;6.20;81.50;;;;;;9181565;19;20379;-62
2022/02/21 08:20:51;;;;;;;15.57;2.65;;;6.20;81.40;;;;;;9179596;19;20066;-62
2022/02/21 08:23:56;;;;;;;21.95;2.78;;;6.20;81.40;;;;;;9177098;19;20653;-62
2022/02/21 08:27:03;;;;;;;18.17;2.80;;;6.30;81.40;;;;;;9173905;19;20015;-65
2022/02/21 08:30:11;;;;;;;19.30;3.15;;;6.30;81.40;;;;;;9181920;19;20481;-63
2022/02/21 08:33:16;;;;;;;20.90;2.97;;;6.30;81.30;;;;;;9182358;19;20030;-66
2022/02/21 08:36:24;;;;;;;24.50;3.03;;;6.30;81.30;;;;;;9176558;19;20026;-63
2022/02/21 08:39:30;;;;;;;14.45;2.30;;;6.40;81.30;;;;;;9177112;19;20472;-63
2022/02/21 08:42:35;;;;;;;22.95;3.78;;;6.40;81.30;;;;;;9177259;19;20015;-65
2022/02/21 08:45:40;;;;;;;23.42;3.92;;;6.40;81.20;;;;;;9178941;19;20026;-65
2022/02/21 08:48:45;;;;;;;17.90;3.00;;;6.40;81.20;;;;;;9177950;19;20019;-62
2022/02/21 08:51:53;;;;;;;24.42;3.83;;;6.40;81.10;;;;;;9173763;19;20018;-63
2022/02/21 08:54:58;;;;;;;17.95;3.00;;;6.50;81.20;;;;;;9177775;19;20037;-62
2022/02/21 08:58:03;;;;;;;28.35;2.92;;;6.50;81.10;;;;;;9179114;19;20018;-64
2022/02/21 09:01:08;;;;;;;21.08;2.50;;;6.50;81.10;;;;;;9175584;19;20468;-64
2022/02/21 09:04:15;;;;;;;17.50;3.00;;;6.50;81.00;;;;;;9175940;19;20019;-61
2022/02/21 09:07:22;;;;;;;24.35;2.85;;;6.50;81.00;;;;;;9176801;19;20022;-63
2022/02/21 09:10:28;;;;;;;22.55;3.00;;;6.50;81.00;;;;;;9173735;19;20014;-63
2022/02/21 09:13:34;;;;;;;22.48;3.28;;;6.50;81.00;;;;;;9176161;19;20356;-64
2022/02/21 09:16:39;;;;;;;17.80;2.90;;;6.60;81.00;;;;;;9177536;19;20007;-63
2022/02/21 09:19:44;;;;;;;22.75;4.78;;;6.60;81.00;;;;;;9176549;19;20022;-63
2022/02/21 09:22:52;;;;;;;14.45;2.40;;;6.60;81.00;;;;;;9176858;19;20086;-62
2022/02/21 09:25:59;;;;;;;26.27;3.45;;;6.60;81.00;;;;;;9171697;19;20037;-65
2022/02/21 09:29:04;;;;;;;14.88;2.53;;;6.50;81.00;;;;;;9170905;19;20015;-63
2022/02/21 09:32:10;;;;;;;9.35;1.92;;;6.50;81.10;;;;;;9176556;19;20022;-62
2022/02/21 09:35:15;;;;;;;11.50;2.08;;;6.40;81.00;;;;;;9176546;19;20046;-63
2022/02/21 09:38:22;;;;;;;16.58;2.55;;;6.40;81.10;;;;;;9172277;19;21640;-63
2022/02/21 09:41:27;;;;;;;6.80;1.35;;;6.30;81.10;;;;;;9171727;19;20032;-62
2022/02/21 09:44:33;;;;;;;12.43;2.33;;;6.20;81.10;;;;;;9175847;19;20052;-62
2022/02/21 09:47:38;;;;;;;8.10;1.88;;;6.20;81.20;;;;;;9177496;19;20494;-64
2022/02/21 09:51:03;;;;;;;10.10;1.73;;;6.10;81.20;;;;;;9175429;19;20037;-63
2022/02/21 09:54:13;;;;;;;9.10;2.25;;;6.00;81.20;;;;;;9172878;19;20773;-63
2022/02/21 09:57:18;;;;;;;9.80;1.75;;;6.00;81.40;;;;;;9172978;19;20674;-63
2022/02/21 10:00:24;;;;;;;11.35;2.10;;;5.90;81.40;;;;;;9174256;19;20115;-65
2022/02/21 10:03:42;;;;;;;17.52;2.15;;;5.90;81.50;;;;;;9183858;19;20042;-63
2022/02/21 10:06:48;;;;;;;13.52;1.65;;;5.80;81.60;;;;;;9187257;19;20748;-61
2022/02/21 10:10:00;;;;;;;15.38;2.70;;;5.80;81.60;;;;;;9182887;19;20022;-62
2022/02/21 10:13:06;;;;;;;11.48;1.70;;;5.70;81.60;;;;;;9184301;19;20024;-63
2022/02/21 10:16:11;;;;;;;15.95;2.10;;;5.60;81.60;;;;;;9181898;19;20921;-63
2022/02/21 10:19:22;;;;;;;11.57;2.55;;;5.60;81.70;;;;;;9186489;19;20026;-64
2022/02/21 10:22:30;;;;;;;8.85;1.77;;;5.50;81.80;;;;;;9186363;19;20014;-62
2022/02/21 10:25:38;;;;;;;8.07;1.52;;;5.50;81.90;;;;;;9181534;19;20015;-61
2022/02/21 10:28:44;;;;;;;12.93;1.75;;;5.50;82.00;;;;;;9177438;19;20372;-61
2022/02/21 10:31:49;;;;;;;9.30;1.80;;;5.40;82.10;;;;;;9182939;19;20010;-60
2022/02/21 10:35:15;;;;;;;9.32;1.90;;;5.40;82.10;;;;;;9184183;19;20014;-63
2022/02/21 10:38:20;;;;;;;7.68;1.77;;;5.40;82.30;;;;;;9184293;19;20014;-65
2022/02/21 10:41:41;;;;;;;5.50;1.90;;;5.30;82.20;;;;;;9181167;19;20018;-61
2022/02/21 10:44:47;;;;;;;7.43;1.63;;;5.30;82.40;;;;;;9177079;19;20013;-61
2022/02/21 10:48:03;;;;;;;2.08;1.30;;;5.30;82.40;;;;;;9178578;19;20030;-64
2022/02/21 10:51:08;;;;;;;4.47;1.83;;;5.30;82.50;;;;;;9175774;19;20022;-60
2022/02/21 10:54:13;;;;;;;5.63;1.77;;;5.30;82.50;;;;;;9183485;19;20085;-62
2022/02/21 10:57:23;;;;;;;3.13;1.10;;;5.30;82.60;;;;;;9179468;19;20018;-61
2022/02/21 11:00:28;;;;;;;6.93;2.03;;;5.30;82.70;;;;;;9174444;19;20030;-61
2022/02/21 11:03:33;;;;;;;5.63;1.20;;;5.30;82.70;;;;;;9181428;19;20029;-61
2022/02/21 11:06:38;;;;;;;6.72;1.85;;;5.20;82.60;;;;;;9182496;19;21447;-60
2022/02/21 11:09:45;;;;;;;5.97;1.48;;;5.30;82.80;;;;;;9181528;19;20032;-61
2022/02/21 11:12:54;;;;;;;5.20;1.48;;;5.30;82.80;;;;;;9183111;19;20022;-63
2022/02/21 11:16:00;;;;;;;2.58;1.35;;;5.30;82.80;;;;;;9179860;19;20014;-63
2022/02/21 11:19:06;;;;;;;6.22;1.23;;;5.20;82.80;;;;;;9181147;19;20022;-64
2022/02/21 11:22:12;;;;;;;5.90;1.50;;;5.20;82.90;;;;;;9180742;19;20029;-62
2022/02/21 11:25:29;;;;;;;4.53;1.40;;;5.30;83.00;;;;;;9176595;19;20137;-63
2022/02/21 11:28:42;;;;;;;3.88;1.05;;;5.30;83.20;;;;;;9177709;19;20015;-62
2022/02/21 11:31:48;;;;;;;11.63;2.10;;;5.30;83.20;;;;;;9179479;19;20011;-65
2022/02/21 11:35:14;;;;;;;4.53;1.13;;;5.30;83.10;;;;;;9177652;19;20471;-62
2022/02/21 11:38:22;;;;;;;3.80;1.23;;;5.30;83.30;;;;;;9179631;19;20019;-63
2022/02/21 11:41:36;;;;;;;6.03;1.65;;;5.30;83.20;;;;;;9176608;19;20018;-63
2022/02/21 11:44:53;;;;;;;4.90;1.15;;;5.30;83.30;;;;;;9180305;19;20025;-63
2022/02/21 11:48:15;;;;;;;5.40;1.17;;;5.30;83.30;;;;;;9182157;19;20018;-63
2022/02/21 11:51:31;;;;;;;4.80;1.58;;;5.40;83.30;;;;;;9177598;19;20044;-64
2022/02/21 11:54:47;;;;;;;2.53;1.10;;;5.30;83.20;;;;;;9180843;19;20030;-61
2022/02/21 11:57:52;;;;;;;1.92;0.80;;;5.30;83.30;;;;;;9175463;19;20018;-61
2022/02/21 12:01:10;;;;;;;6.57;1.10;;;5.30;83.30;;;;;;9178293;19;20047;-63
2022/02/21 12:04:18;;;;;;;2.90;0.88;;;5.30;83.30;;;;;;9178104;19;20086;-62
2022/02/21 12:07:28;;;;;;;2.97;0.70;;;5.40;83.30;;;;;;9178554;19;20025;-63
2022/02/21 12:10:33;;;;;;;2.35;0.93;;;5.30;83.30;;;;;;9179209;19;20037;-63
2022/02/21 12:13:39;;;;;;;3.30;1.02;;;5.30;83.30;;;;;;9180859;19;20046;-63
2022/02/21 12:17:17;;;;;;;6.35;1.10;;;5.30;83.40;;;;;;9181624;19;20020;-62
2022/02/21 12:20:38;;;;;;;3.25;0.90;;;5.30;83.50;;;;;;9180021;19;20346;-63
2022/02/21 12:24:09;;;;;;;1.85;1.10;;;5.30;83.60;;;;;;9180280;19;20021;-62
2022/02/21 12:27:17;;;;;;;3.38;1.02;;;5.30;83.60;;;;;;9175051;19;20018;-64
2022/02/21 12:30:37;;;;;;;3.05;1.15;;;5.30;83.70;;;;;;9180855;19;20029;-63
2022/02/21 12:33:42;;;;;;;4.82;1.17;;;5.30;83.70;;;;;;9178743;19;20021;-62
2022/02/21 12:36:51;;;;;;;9.55;1.42;;;5.30;83.70;;;;;;9180772;19;20126;-62
2022/02/21 12:39:56;;;;;;;6.22;1.40;;;5.40;83.90;;;;;;9181786;19;20022;-62
2022/02/21 12:43:01;;;;;;;5.85;1.40;;;5.40;83.90;;;;;;9181710;19;20010;-61
2022/02/21 12:46:06;;;;;;;8.60;1.60;;;5.50;84.00;;;;;;9182671;19;20594;-63
2022/02/21 12:49:21;;;;;;;11.43;1.95;;;5.50;84.10;;;;;;9178769;19;20428;-63
2022/02/21 12:52:29;;;;;;;10.73;1.80;;;5.50;84.20;;;;;;9178925;19;20397;-64
2022/02/21 12:55:34;;;;;;;12.43;1.92;;;5.60;84.30;;;;;;9180312;19;20013;-62
2022/02/21 12:58:39;;;;;;;12.52;1.95;;;5.70;84.40;;;;;;9177235;19;20025;-63
2022/02/21 13:01:44;;;;;;;13.55;2.20;;;5.70;85.10;;;;;;9181024;19;20014;-62
2022/02/21 13:04:50;;;;;;;17.20;2.25;;;5.80;84.60;;;;;;9176801;19;20015;-62
2022/02/21 13:07:57;;;;;;;7.72;2.35;;;5.90;84.60;;;;;;9176780;19;20006;-64
2022/02/21 13:11:02;;;;;;;16.98;2.47;;;6.00;84.80;;;;;;9179535;19;20015;-63
2022/02/21 13:14:11;;;;;;;16.67;2.22;;;6.10;84.90;;;;;;9181593;19;20022;-64
2022/02/21 13:17:17;;;;;;;21.05;2.58;;;6.20;85.00;;;;;;9177994;19;20014;-62
2022/02/21 13:20:22;;;;;;;18.00;3.28;;;6.20;85.10;;;;;;9172237;19;20011;-66
2022/02/21 13:23:30;;;;;;;26.73;3.50;;;6.30;85.10;;;;;;9178113;19;20018;-64
2022/02/21 13:26:48;;;;;;;25.90;3.65;;;6.50;85.30;;;;;;9164019;19;20369;-67
2022/02/21 13:29:55;;;;;;;26.35;3.80;;;6.60;85.50;;;;;;9171854;19;20018;-63
2022/02/21 13:33:11;;;;;;;12.55;3.47;;;6.70;85.40;;;;;;9172666;19;20029;-64
2022/02/21 13:36:17;;;;;;;25.23;3.33;;;6.70;85.60;;;;;;9170328;19;20023;-63
2022/02/21 13:39:30;;;;;;;18.23;2.72;;;6.80;85.50;;;;;;9169853;19;20018;-64
2022/02/21 13:42:37;;;;;;;10.63;2.20;;;7.00;85.70;;;;;;9168720;19;20011;-65
2022/02/21 13:45:52;;;;;;;12.27;1.90;;;7.00;85.60;;;;;;9172676;19;20044;-64
2022/02/21 13:49:00;;;;;;;15.18;2.35;;;7.10;85.60;;;;;;9170459;19;20018;-63
2022/02/21 13:52:09;;;;;;;10.57;1.75;;;7.10;85.50;;;;;;9170443;19;20011;-66
2022/02/21 13:55:27;;;;;;;10.70;1.95;;;7.20;85.70;;;;;;9167876;19;20114;-63
2022/02/21 13:58:34;;;;;;;11.60;2.72;;;7.30;85.70;;;;;;9172057;19;20022;-63
2022/02/21 14:01:41;;;;;;;29.92;4.07;;;7.40;85.60;;;;;;9172961;19;20365;-64
2022/02/21 14:04:47;;;;;;;24.73;3.58;;;7.40;85.70;;;;;;9170636;19;20020;-64
2022/02/21 14:07:52;;;;;;;28.25;4.15;;;7.50;85.80;;;;;;9171359;19;20365;-64
2022/02/21 14:11:00;;;;;;;25.42;3.13;;;7.50;85.90;;;;;;9169099;19;20063;-63
2022/02/21 14:14:10;;;;;;;19.17;3.33;;;7.60;86.00;;;;;;9170101;19;20011;-65
2022/02/21 14:17:15;;;;;;;28.83;3.67;;;7.70;86.00;;;;;;9171161;19;20025;-65
2022/02/21 14:20:20;;;;;;;18.98;2.78;;;7.80;86.00;;;;;;9173065;19;20475;-63
2022/02/21 14:23:36;;;;;;;26.00;3.33;;;7.80;85.90;;;;;;9172648;19;20114;-63
2022/02/21 14:26:44;;;;;;;26.38;3.38;;;7.90;85.90;;;;;;9162900;19;20018;-62
2022/02/21 14:29:49;;;;;;;23.25;3.38;;;8.00;85.90;;;;;;9169650;19;20094;-64
2022/02/21 14:32:58;;;;;;;15.30;3.47;;;8.00;85.90;;;;;;9171917;19;20503;-64
2022/02/21 14:36:14;;;;;;;32.60;3.92;;;8.10;86.00;;;;;;9171368;19;20007;-64
2022/02/21 14:39:19;;;;;;;11.52;2.63;;;8.10;85.90;;;;;;9169606;19;20040;-67
2022/02/21 14:42:29;;;;;;;21.30;3.35;;;8.20;85.90;;;;;;9170236;19;20015;-63
2022/02/21 14:45:34;;;;;;;22.42;3.33;;;8.20;85.80;;;;;;9169160;19;20019;-63
2022/02/21 14:48:42;;;;;;;18.88;4.55;;;8.30;85.90;;;;;;9170981;19;20029;-65
2022/02/21 14:52:01;;;;;;;15.75;1.90;;;8.30;85.80;;;;;;9177527;19;20015;-67
2022/02/21 14:55:07;;;;;;;16.42;2.20;;;8.40;85.80;;;;;;9178390;19;20022;-64
2022/02/21 14:58:15;;;;;;;13.48;1.75;;;8.40;85.70;;;;;;9178211;19;20010;-63
2022/02/21 15:01:20;;;;;;;13.73;2.20;;;8.40;86.20;;;;;;9178408;19;20641;-62
2022/02/21 15:04:25;;;;;;;11.80;2.45;;;8.40;85.60;;;;;;9177627;19;20053;-65
2022/02/21 15:07:30;;;;;;;12.63;1.83;;;8.40;85.50;;;;;;9178714;19;20113;-64
2022/02/21 15:10:35;;;;;;;8.80;1.75;;;8.40;85.40;;;;;;9178128;19;20022;-65
2022/02/21 15:13:43;;;;;;;8.13;1.75;;;8.40;85.30;;;;;;9176011;19;20775;-65
2022/02/21 15:16:48;;;;;;;8.85;1.63;;;8.40;85.10;;;;;;9174874;19;20014;-66
2022/02/21 15:19:53;;;;;;;10.10;1.35;;;8.40;84.80;;;;;;9175922;19;20369;-64
2022/02/21 15:22:58;;;;;;;7.70;1.50;;;8.30;84.70;;;;;;9179659;19;20029;-63
2022/02/21 15:26:04;;;;;;;8.45;1.65;;;8.30;84.60;;;;;;9177079;19;20014;-65
2022/02/21 15:29:12;;;;;;;11.30;1.77;;;8.30;84.60;;;;;;9174490;19;20022;-64
2022/02/21 15:32:17;;;;;;;9.90;1.65;;;8.20;84.50;;;;;;9175749;19;20022;-63
2022/02/21 15:35:22;;;;;;;8.35;2.00;;;8.20;84.50;;;;;;9176669;19;20029;-65
2022/02/21 15:38:27;;;;;;;9.38;1.63;;;8.20;84.50;;;;;;9177456;19;20023;-66
2022/02/21 15:41:32;;;;;;;8.40;1.60;;;8.20;84.40;;;;;;9178780;19;20021;-62
2022/02/21 15:44:40;;;;;;;4.40;1.05;;;8.20;84.40;;;;;;9176253;19;20015;-66
2022/02/21 15:47:52;;;;;;;11.40;1.13;;;8.10;84.30;;;;;;9176537;19;20653;-63
2022/02/21 15:50:57;;;;;;;13.48;1.67;;;8.10;84.30;;;;;;9175339;19;20014;-67
2022/02/21 15:54:02;;;;;;;9.02;1.20;;;8.10;84.20;;;;;;9175924;19;20583;-68
2022/02/21 15:57:07;;;;;;;6.95;1.50;;;8.10;84.20;;;;;;9179013;19;20028;-63
2022/02/21 16:00:16;;;;;;;14.30;2.20;;;8.10;84.20;;;;;;9174103;19;20029;-64
2022/02/21 16:03:21;;;;;;;6.68;1.30;;;8.00;84.10;;;;;;9176163;19;20019;-64
2022/02/21 16:06:26;;;;;;;11.18;2.05;;;8.00;84.10;;;;;;9182665;19;20022;-63
2022/02/21 16:09:31;;;;;;;7.13;1.20;;;8.00;84.00;;;;;;9182284;19;20029;-64
2022/02/21 16:12:36;;;;;;;12.30;1.52;;;8.00;84.00;;;;;;9180550;19;20043;-64
2022/02/21 16:15:44;;;;;;;8.98;2.10;;;8.00;84.00;;;;;;9180843;19;20027;-64
2022/02/21 16:18:50;;;;;;;10.63;1.90;;;8.00;83.90;;;;;;9179842;19;20017;-64